sensor_id;sensor_type;location;lat;lon;timestamp;temperature;humidity
6724;DHT22;3399;52.530;13.304;2022-07-12T00:00:44;15.30;99.90
6724;DHT22;3399;52.530;13.304;2022-07-12T00:03:10;15.30;99.90
6724;DHT22;3399;52.530;13.304;2022-07-12T00:05:35;15.20;99.90
6724;DHT22;3399;52.530;13.304;2022-07-12T00:08:01;15.20;99.90
6724;DHT22;3399;52.530;13.304;2022-07-12T00:10:27;15.10;99.90
6724;DHT22;3399;52.530;13.304;2022-07-12T00:12:52;15.10;99.90
6724;DHT22;3399;52.530;13.304;2022-07-12T00:15:19;15.00;99.90
6724;DHT22;3399;52.530;13.304;2022-07-12T00:17:45;15.00;99.90
6724;DHT22;3399;52.530;13.304;2022-07-12T00:20:10;15.00;99.90
6724;DHT22;3399;52.530;13.304;2022-07-12T00:22:36;15.00;99.90
6724;DHT22;3399;52.530;13.304;2022-07-12T00:25:02;15.00;99.90
6724;DHT22;3399;52.530;13.304;2022-07-12T00:27:28;14.90;99.90
6724;DHT22;3399;52.530;13.304;2022-07-12T00:29:54;15.00;99.90
6724;DHT22;3399;52.530;13.304;2022-07-12T00:32:19;15.00;99.90
6724;DHT22;3399;52.530;13.304;2022-07-12T00:34:45;14.90;99.90
6724;DHT22;3399;52.530;13.304;2022-07-12T00:37:10;14.90;99.90
6724;DHT22;3399;52.530;13.304;2022-07-12T00:39:36;14.90;99.90
6724;DHT22;3399;52.530;13.304;2022-07-12T00:42:01;14.80;99.90
6724;DHT22;3399;52.530;13.304;2022-07-12T00:44:27;14.80;99.90
6724;DHT22;3399;52.530;13.304;2022-07-12T00:46:52;14.80;99.90
6724;DHT22;3399;52.530;13.304;2022-07-12T00:49:18;14.80;99.90
6724;DHT22;3399;52.530;13.304;2022-07-12T00:51:44;14.70;99.90
6724;DHT22;3399;52.530;13.304;2022-07-12T00:54:10;14.70;99.90
6724;DHT22;3399;52.530;13.304;2022-07-12T00:56:36;14.70;99.90
6724;DHT22;3399;52.530;13.304;2022-07-12T00:59:03;14.70;99.90
6724;DHT22;3399;52.530;13.304;2022-07-12T01:01:28;14.70;99.90
6724;DHT22;3399;52.530;13.304;2022-07-12T01:03:54;14.60;99.90
6724;DHT22;3399;52.530;13.304;2022-07-12T01:06:21;14.60;99.90
6724;DHT22;3399;52.530;13.304;2022-07-12T01:08:47;14.60;99.90
6724;DHT22;3399;52.530;13.304;2022-07-12T01:11:13;14.50;99.90
6724;DHT22;3399;52.530;13.304;2022-07-12T01:13:40;14.40;99.90
6724;DHT22;3399;52.530;13.304;2022-07-12T01:16:06;14.40;99.90
6724;DHT22;3399;52.530;13.304;2022-07-12T01:18:33;14.30;99.90
6724;DHT22;3399;52.530;13.304;2022-07-12T01:21:03;14.30;99.90
6724;DHT22;3399;52.530;13.304;2022-07-12T01:23:29;14.30;99.90
6724;DHT22;3399;52.530;13.304;2022-07-12T01:25:56;14.30;99.90
6724;DHT22;3399;52.530;13.304;2022-07-12T01:28:21;14.20;99.90
6724;DHT22;3399;52.530;13.304;2022-07-12T01:30:47;14.10;99.90
6724;DHT22;3399;52.530;13.304;2022-07-12T01:33:15;14.10;99.90
6724;DHT22;3399;52.530;13.304;2022-07-12T01:35:41;14.10;99.90
6724;DHT22;3399;52.530;13.304;2022-07-12T01:38:07;14.00;99.90
6724;DHT22;3399;52.530;13.304;2022-07-12T01:40:32;14.00;99.90
6724;DHT22;3399;52.530;13.304;2022-07-12T01:43:01;13.90;99.90
6724;DHT22;3399;52.530;13.304;2022-07-12T01:45:26;13.90;99.90
6724;DHT22;3399;52.530;13.304;2022-07-12T01:47:52;13.90;99.90
6724;DHT22;3399;52.530;13.304;2022-07-12T01:50:18;13.80;99.90
6724;DHT22;3399;52.530;13.304;2022-07-12T01:52:44;13.90;99.90
6724;DHT22;3399;52.530;13.304;2022-07-12T01:55:11;13.80;99.90
6724;DHT22;3399;52.530;13.304;2022-07-12T01:57:38;13.80;99.90
6724;DHT22;3399;52.530;13.304;2022-07-12T02:00:06;13.90;99.90
6724;DHT22;3399;52.530;13.304;2022-07-12T02:02:32;13.90;99.90
6724;DHT22;3399;52.530;13.304;2022-07-12T02:04:59;13.90;99.90
6724;DHT22;3399;52.530;13.304;2022-07-12T02:07:25;13.80;99.90
6724;DHT22;3399;52.530;13.304;2022-07-12T02:09:51;13.70;99.90
6724;DHT22;3399;52.530;13.304;2022-07-12T02:12:16;13.80;99.90
6724;DHT22;3399;52.530;13.304;2022-07-12T02:14:42;13.80;99.90
6724;DHT22;3399;52.530;13.304;2022-07-12T02:17:07;13.80;99.90
6724;DHT22;3399;52.530;13.304;2022-07-12T02:19:33;13.80;99.90
6724;DHT22;3399;52.530;13.304;2022-07-12T02:21:58;13.80;99.90
6724;DHT22;3399;52.530;13.304;2022-07-12T02:24:24;13.80;99.90
6724;DHT22;3399;52.530;13.304;2022-07-12T02:26:49;13.70;99.90
6724;DHT22;3399;52.530;13.304;2022-07-12T02:29:15;13.70;99.90
6724;DHT22;3399;52.530;13.304;2022-07-12T02:31:41;13.60;99.90
6724;DHT22;3399;52.530;13.304;2022-07-12T02:34:06;13.50;99.90
6724;DHT22;3399;52.530;13.304;2022-07-12T02:36:32;13.40;99.90
6724;DHT22;3399;52.530;13.304;2022-07-12T02:38:59;13.40;99.90
6724;DHT22;3399;52.530;13.304;2022-07-12T02:41:28;13.40;99.90
6724;DHT22;3399;52.530;13.304;2022-07-12T02:43:53;13.50;99.90
6724;DHT22;3399;52.530;13.304;2022-07-12T02:46:19;13.50;99.90
6724;DHT22;3399;52.530;13.304;2022-07-12T02:48:44;13.50;99.90
6724;DHT22;3399;52.530;13.304;2022-07-12T02:51:10;13.50;99.90
6724;DHT22;3399;52.530;13.304;2022-07-12T02:53:36;13.40;99.90
6724;DHT22;3399;52.530;13.304;2022-07-12T02:56:02;13.40;99.90
6724;DHT22;3399;52.530;13.304;2022-07-12T02:58:28;13.40;99.90
6724;DHT22;3399;52.530;13.304;2022-07-12T03:00:54;13.70;99.90
6724;DHT22;3399;52.530;13.304;2022-07-12T03:03:19;13.70;99.90
6724;DHT22;3399;52.530;13.304;2022-07-12T03:05:45;13.50;99.90
6724;DHT22;3399;52.530;13.304;2022-07-12T03:08:12;13.40;99.90
6724;DHT22;3399;52.530;13.304;2022-07-12T03:10:37;13.30;99.90
6724;DHT22;3399;52.530;13.304;2022-07-12T03:13:04;13.30;99.90
6724;DHT22;3399;52.530;13.304;2022-07-12T03:15:30;13.40;99.90
6724;DHT22;3399;52.530;13.304;2022-07-12T03:17:56;13.40;99.90
6724;DHT22;3399;52.530;13.304;2022-07-12T03:20:22;13.80;99.90
6724;DHT22;3399;52.530;13.304;2022-07-12T03:22:48;13.90;99.90
6724;DHT22;3399;52.530;13.304;2022-07-12T03:25:22;13.80;99.90
6724;DHT22;3399;52.530;13.304;2022-07-12T03:27:48;13.80;99.90
6724;DHT22;3399;52.530;13.304;2022-07-12T03:30:14;13.70;99.90
6724;DHT22;3399;52.530;13.304;2022-07-12T03:32:40;13.50;99.90
6724;DHT22;3399;52.530;13.304;2022-07-12T03:35:06;13.40;99.90
6724;DHT22;3399;52.530;13.304;2022-07-12T03:40:06;13.40;99.90
6724;DHT22;3399;52.530;13.304;2022-07-12T03:42:32;13.50;99.90
6724;DHT22;3399;52.530;13.304;2022-07-12T03:44:57;13.50;99.90
6724;DHT22;3399;52.530;13.304;2022-07-12T03:47:23;13.40;99.90
6724;DHT22;3399;52.530;13.304;2022-07-12T03:49:48;13.40;99.90
6724;DHT22;3399;52.530;13.304;2022-07-12T03:52:14;13.30;99.90
6724;DHT22;3399;52.530;13.304;2022-07-12T03:54:39;13.40;99.90
6724;DHT22;3399;52.530;13.304;2022-07-12T03:57:05;13.50;99.90
6724;DHT22;3399;52.530;13.304;2022-07-12T03:59:41;13.70;99.90
6724;DHT22;3399;52.530;13.304;2022-07-12T04:02:06;13.70;99.90
6724;DHT22;3399;52.530;13.304;2022-07-12T04:04:32;13.70;99.90
6724;DHT22;3399;52.530;13.304;2022-07-12T04:06:57;13.70;99.90
6724;DHT22;3399;52.530;13.304;2022-07-12T04:09:23;13.70;99.90
6724;DHT22;3399;52.530;13.304;2022-07-12T04:11:48;13.70;99.90
6724;DHT22;3399;52.530;13.304;2022-07-12T04:14:14;13.70;99.90
6724;DHT22;3399;52.530;13.304;2022-07-12T04:16:40;13.70;99.90
6724;DHT22;3399;52.530;13.304;2022-07-12T04:19:05;13.80;99.90
6724;DHT22;3399;52.530;13.304;2022-07-12T04:21:31;13.70;99.90
6724;DHT22;3399;52.530;13.304;2022-07-12T04:23:57;13.80;99.90
6724;DHT22;3399;52.530;13.304;2022-07-12T04:26:22;13.90;99.90
6724;DHT22;3399;52.530;13.304;2022-07-12T04:28:48;13.90;99.90
6724;DHT22;3399;52.530;13.304;2022-07-12T04:31:13;13.90;99.90
6724;DHT22;3399;52.530;13.304;2022-07-12T04:33:39;13.90;99.90
6724;DHT22;3399;52.530;13.304;2022-07-12T04:36:05;14.10;99.90
6724;DHT22;3399;52.530;13.304;2022-07-12T04:38:30;14.10;99.90
6724;DHT22;3399;52.530;13.304;2022-07-12T04:40:56;14.10;99.90
6724;DHT22;3399;52.530;13.304;2022-07-12T04:43:21;14.20;99.90
6724;DHT22;3399;52.530;13.304;2022-07-12T04:45:49;14.20;99.90
6724;DHT22;3399;52.530;13.304;2022-07-12T04:48:15;14.30;99.90
6724;DHT22;3399;52.530;13.304;2022-07-12T04:50:41;14.30;99.90
6724;DHT22;3399;52.530;13.304;2022-07-12T04:53:07;14.40;99.90
6724;DHT22;3399;52.530;13.304;2022-07-12T04:55:32;14.50;99.90
6724;DHT22;3399;52.530;13.304;2022-07-12T04:57:58;14.50;99.90
6724;DHT22;3399;52.530;13.304;2022-07-12T05:00:23;14.60;99.90
6724;DHT22;3399;52.530;13.304;2022-07-12T05:02:49;14.70;99.90
6724;DHT22;3399;52.530;13.304;2022-07-12T05:05:15;14.80;99.90
6724;DHT22;3399;52.530;13.304;2022-07-12T05:07:41;14.90;99.90
6724;DHT22;3399;52.530;13.304;2022-07-12T05:10:07;14.90;99.90
6724;DHT22;3399;52.530;13.304;2022-07-12T05:12:37;15.00;99.90
6724;DHT22;3399;52.530;13.304;2022-07-12T05:15:04;15.10;99.90
6724;DHT22;3399;52.530;13.304;2022-07-12T05:17:30;15.20;99.90
6724;DHT22;3399;52.530;13.304;2022-07-12T05:19:55;15.30;99.90
6724;DHT22;3399;52.530;13.304;2022-07-12T05:22:21;15.40;99.90
6724;DHT22;3399;52.530;13.304;2022-07-12T05:24:46;15.60;99.90
6724;DHT22;3399;52.530;13.304;2022-07-12T05:27:12;15.60;99.90
6724;DHT22;3399;52.530;13.304;2022-07-12T05:29:38;15.80;99.90
6724;DHT22;3399;52.530;13.304;2022-07-12T05:32:03;15.80;99.90
6724;DHT22;3399;52.530;13.304;2022-07-12T05:34:30;15.90;99.90
6724;DHT22;3399;52.530;13.304;2022-07-12T05:36:56;16.00;99.90
6724;DHT22;3399;52.530;13.304;2022-07-12T05:39:21;16.00;99.90
6724;DHT22;3399;52.530;13.304;2022-07-12T05:41:47;16.10;99.90
6724;DHT22;3399;52.530;13.304;2022-07-12T05:44:13;16.30;99.90
6724;DHT22;3399;52.530;13.304;2022-07-12T05:46:39;16.50;99.90
6724;DHT22;3399;52.530;13.304;2022-07-12T05:49:06;16.60;99.90
6724;DHT22;3399;52.530;13.304;2022-07-12T05:51:32;16.70;99.90
6724;DHT22;3399;52.530;13.304;2022-07-12T05:54:16;16.80;99.90
6724;DHT22;3399;52.530;13.304;2022-07-12T05:56:42;16.90;99.90
6724;DHT22;3399;52.530;13.304;2022-07-12T05:59:07;17.00;99.90
6724;DHT22;3399;52.530;13.304;2022-07-12T06:01:33;17.10;99.90
6724;DHT22;3399;52.530;13.304;2022-07-12T06:03:59;17.30;99.90
6724;DHT22;3399;52.530;13.304;2022-07-12T06:06:25;17.50;99.90
6724;DHT22;3399;52.530;13.304;2022-07-12T06:08:50;17.50;99.90
6724;DHT22;3399;52.530;13.304;2022-07-12T06:11:16;17.60;99.90
6724;DHT22;3399;52.530;13.304;2022-07-12T06:13:42;17.60;99.70
6724;DHT22;3399;52.530;13.304;2022-07-12T06:16:07;17.70;99.60
6724;DHT22;3399;52.530;13.304;2022-07-12T06:18:35;17.80;99.70
6724;DHT22;3399;52.530;13.304;2022-07-12T06:21:01;17.60;99.40
6724;DHT22;3399;52.530;13.304;2022-07-12T06:23:27;17.50;99.80
6724;DHT22;3399;52.530;13.304;2022-07-12T06:25:52;17.60;99.80
6724;DHT22;3399;52.530;13.304;2022-07-12T06:28:18;17.90;99.50
6724;DHT22;3399;52.530;13.304;2022-07-12T06:30:43;18.00;99.40
6724;DHT22;3399;52.530;13.304;2022-07-12T06:33:09;18.10;99.60
6724;DHT22;3399;52.530;13.304;2022-07-12T06:35:34;18.20;99.30
6724;DHT22;3399;52.530;13.304;2022-07-12T06:38:00;18.10;99.10
6724;DHT22;3399;52.530;13.304;2022-07-12T06:40:26;18.10;98.90
6724;DHT22;3399;52.530;13.304;2022-07-12T06:42:51;18.30;98.70
6724;DHT22;3399;52.530;13.304;2022-07-12T06:45:17;18.30;98.70
6724;DHT22;3399;52.530;13.304;2022-07-12T06:47:43;18.50;98.80
6724;DHT22;3399;52.530;13.304;2022-07-12T06:50:09;18.70;98.80
6724;DHT22;3399;52.530;13.304;2022-07-12T06:52:35;18.70;98.70
6724;DHT22;3399;52.530;13.304;2022-07-12T06:55:00;18.80;98.10
6724;DHT22;3399;52.530;13.304;2022-07-12T06:57:26;18.90;98.00
6724;DHT22;3399;52.530;13.304;2022-07-12T06:59:52;18.80;98.00
6724;DHT22;3399;52.530;13.304;2022-07-12T07:02:18;19.00;98.10
6724;DHT22;3399;52.530;13.304;2022-07-12T07:04:43;19.20;97.90
6724;DHT22;3399;52.530;13.304;2022-07-12T07:07:09;19.30;97.50
6724;DHT22;3399;52.530;13.304;2022-07-12T07:09:34;19.40;97.40
6724;DHT22;3399;52.530;13.304;2022-07-12T07:12:00;19.60;97.50
6724;DHT22;3399;52.530;13.304;2022-07-12T07:14:26;19.70;97.20
6724;DHT22;3399;52.530;13.304;2022-07-12T07:16:55;19.70;97.00
6724;DHT22;3399;52.530;13.304;2022-07-12T07:19:21;19.70;97.20
6724;DHT22;3399;52.530;13.304;2022-07-12T07:21:48;19.80;97.00
6724;DHT22;3399;52.530;13.304;2022-07-12T07:24:13;19.80;96.90
6724;DHT22;3399;52.530;13.304;2022-07-12T07:26:39;19.80;96.30
6724;DHT22;3399;52.530;13.304;2022-07-12T07:29:04;19.80;96.30
6724;DHT22;3399;52.530;13.304;2022-07-12T07:31:48;19.90;96.30
6724;DHT22;3399;52.530;13.304;2022-07-12T07:34:14;20.10;96.30
6724;DHT22;3399;52.530;13.304;2022-07-12T07:36:39;20.00;96.40
6724;DHT22;3399;52.530;13.304;2022-07-12T07:39:05;20.00;96.40
6724;DHT22;3399;52.530;13.304;2022-07-12T07:41:30;20.00;96.60
6724;DHT22;3399;52.530;13.304;2022-07-12T07:43:56;20.10;96.30
6724;DHT22;3399;52.530;13.304;2022-07-12T07:46:21;20.40;96.10
6724;DHT22;3399;52.530;13.304;2022-07-12T07:48:47;20.50;95.80
6724;DHT22;3399;52.530;13.304;2022-07-12T07:51:12;20.70;94.20
6724;DHT22;3399;52.530;13.304;2022-07-12T07:53:38;20.80;94.10
6724;DHT22;3399;52.530;13.304;2022-07-12T07:56:04;20.90;94.70
6724;DHT22;3399;52.530;13.304;2022-07-12T07:58:29;21.00;94.30
6724;DHT22;3399;52.530;13.304;2022-07-12T08:00:55;21.30;93.90
6724;DHT22;3399;52.530;13.304;2022-07-12T08:03:20;21.30;93.10
6724;DHT22;3399;52.530;13.304;2022-07-12T08:05:46;21.10;93.20
6724;DHT22;3399;52.530;13.304;2022-07-12T08:08:12;21.10;93.50
6724;DHT22;3399;52.530;13.304;2022-07-12T08:10:38;21.10;93.40
6724;DHT22;3399;52.530;13.304;2022-07-12T08:13:04;21.10;93.30
6724;DHT22;3399;52.530;13.304;2022-07-12T08:15:30;21.20;92.60
6724;DHT22;3399;52.530;13.304;2022-07-12T08:17:56;21.30;92.80
6724;DHT22;3399;52.530;13.304;2022-07-12T08:20:22;21.40;91.90
6724;DHT22;3399;52.530;13.304;2022-07-12T08:22:48;21.40;92.00
6724;DHT22;3399;52.530;13.304;2022-07-12T08:25:14;21.40;92.40
6724;DHT22;3399;52.530;13.304;2022-07-12T08:27:39;21.70;92.50
6724;DHT22;3399;52.530;13.304;2022-07-12T08:30:05;21.70;90.50
6724;DHT22;3399;52.530;13.304;2022-07-12T08:32:34;21.90;90.60
6724;DHT22;3399;52.530;13.304;2022-07-12T08:35:00;21.80;90.70
6724;DHT22;3399;52.530;13.304;2022-07-12T08:37:25;21.70;90.40
6724;DHT22;3399;52.530;13.304;2022-07-12T08:39:51;21.80;88.20
6724;DHT22;3399;52.530;13.304;2022-07-12T08:42:17;21.70;88.30
6724;DHT22;3399;52.530;13.304;2022-07-12T08:44:47;22.00;84.80
6724;DHT22;3399;52.530;13.304;2022-07-12T08:47:18;22.10;84.80
6724;DHT22;3399;52.530;13.304;2022-07-12T08:50:14;22.10;86.00
6724;DHT22;3399;52.530;13.304;2022-07-12T08:52:50;22.10;86.40
6724;DHT22;3399;52.530;13.304;2022-07-12T08:55:19;22.10;85.20
6724;DHT22;3399;52.530;13.304;2022-07-12T08:57:45;22.30;84.50
6724;DHT22;3399;52.530;13.304;2022-07-12T09:00:12;22.20;83.70
6724;DHT22;3399;52.530;13.304;2022-07-12T09:05:12;22.20;84.20
6724;DHT22;3399;52.530;13.304;2022-07-12T09:07:37;22.20;83.90
6724;DHT22;3399;52.530;13.304;2022-07-12T09:10:08;22.30;84.50
6724;DHT22;3399;52.530;13.304;2022-07-12T09:12:34;22.50;83.00
6724;DHT22;3399;52.530;13.304;2022-07-12T09:15:20;22.70;84.70
6724;DHT22;3399;52.530;13.304;2022-07-12T09:18:07;22.80;82.00
6724;DHT22;3399;52.530;13.304;2022-07-12T09:20:40;22.90;83.60
6724;DHT22;3399;52.530;13.304;2022-07-12T09:23:10;22.70;81.90
6724;DHT22;3399;52.530;13.304;2022-07-12T09:25:43;22.80;81.60
6724;DHT22;3399;52.530;13.304;2022-07-12T09:28:09;22.90;81.80
6724;DHT22;3399;52.530;13.304;2022-07-12T09:30:36;23.10;81.50
6724;DHT22;3399;52.530;13.304;2022-07-12T09:33:05;23.10;81.00
6724;DHT22;3399;52.530;13.304;2022-07-12T09:38:54;23.20;78.60
6724;DHT22;3399;52.530;13.304;2022-07-12T09:41:22;23.20;76.40
6724;DHT22;3399;52.530;13.304;2022-07-12T09:43:48;23.40;76.40
6724;DHT22;3399;52.530;13.304;2022-07-12T09:46:14;23.60;76.20
6724;DHT22;3399;52.530;13.304;2022-07-12T09:48:42;23.50;75.60
6724;DHT22;3399;52.530;13.304;2022-07-12T09:51:14;23.50;74.60
6724;DHT22;3399;52.530;13.304;2022-07-12T09:53:48;23.60;76.60
6724;DHT22;3399;52.530;13.304;2022-07-12T09:56:18;23.80;76.30
6724;DHT22;3399;52.530;13.304;2022-07-12T09:58:56;24.00;75.10
6724;DHT22;3399;52.530;13.304;2022-07-12T10:01:24;24.20;75.00
6724;DHT22;3399;52.530;13.304;2022-07-12T10:03:54;24.30;72.00
6724;DHT22;3399;52.530;13.304;2022-07-12T10:06:28;24.10;73.30
6724;DHT22;3399;52.530;13.304;2022-07-12T10:08:55;24.20;74.10
6724;DHT22;3399;52.530;13.304;2022-07-12T10:11:22;24.10;71.90
6724;DHT22;3399;52.530;13.304;2022-07-12T10:13:49;24.00;70.00
6724;DHT22;3399;52.530;13.304;2022-07-12T10:16:16;24.00;70.80
6724;DHT22;3399;52.530;13.304;2022-07-12T10:19:25;24.20;70.10
6724;DHT22;3399;52.530;13.304;2022-07-12T10:21:53;24.40;69.70
6724;DHT22;3399;52.530;13.304;2022-07-12T10:29:41;24.90;68.10
6724;DHT22;3399;52.530;13.304;2022-07-12T10:32:33;24.60;66.80
6724;DHT22;3399;52.530;13.304;2022-07-12T10:35:12;24.60;67.20
6724;DHT22;3399;52.530;13.304;2022-07-12T10:37:38;25.10;67.60
6724;DHT22;3399;52.530;13.304;2022-07-12T10:40:17;25.30;65.60
6724;DHT22;3399;52.530;13.304;2022-07-12T10:45:33;25.10;65.10
6724;DHT22;3399;52.530;13.304;2022-07-12T10:48:01;24.80;64.70
6724;DHT22;3399;52.530;13.304;2022-07-12T10:50:50;24.70;66.80
6724;DHT22;3399;52.530;13.304;2022-07-12T10:53:35;25.00;66.90
6724;DHT22;3399;52.530;13.304;2022-07-12T10:56:26;25.10;66.40
6724;DHT22;3399;52.530;13.304;2022-07-12T10:58:59;24.80;66.50
6724;DHT22;3399;52.530;13.304;2022-07-12T11:01:27;25.20;66.50
6724;DHT22;3399;52.530;13.304;2022-07-12T11:03:55;25.60;64.10
6724;DHT22;3399;52.530;13.304;2022-07-12T11:06:25;26.10;63.60
6724;DHT22;3399;52.530;13.304;2022-07-12T11:08:56;26.00;63.70
6724;DHT22;3399;52.530;13.304;2022-07-12T11:11:27;25.60;65.00
6724;DHT22;3399;52.530;13.304;2022-07-12T11:13:53;25.70;63.90
6724;DHT22;3399;52.530;13.304;2022-07-12T11:16:20;26.00;62.70
6724;DHT22;3399;52.530;13.304;2022-07-12T11:18:45;27.00;61.20
6724;DHT22;3399;52.530;13.304;2022-07-12T11:21:11;27.30;60.70
6724;DHT22;3399;52.530;13.304;2022-07-12T11:23:38;27.20;59.80
6724;DHT22;3399;52.530;13.304;2022-07-12T11:26:07;26.30;61.20
6724;DHT22;3399;52.530;13.304;2022-07-12T11:28:33;25.80;62.50
6724;DHT22;3399;52.530;13.304;2022-07-12T11:33:36;26.10;59.70
6724;DHT22;3399;52.530;13.304;2022-07-12T11:36:07;25.90;60.60
6724;DHT22;3399;52.530;13.304;2022-07-12T11:38:34;26.50;60.80
6724;DHT22;3399;52.530;13.304;2022-07-12T11:41:02;27.40;57.90
6724;DHT22;3399;52.530;13.304;2022-07-12T11:43:28;27.10;57.90
6724;DHT22;3399;52.530;13.304;2022-07-12T11:45:55;27.50;58.10
6724;DHT22;3399;52.530;13.304;2022-07-12T11:48:21;27.30;58.50
6724;DHT22;3399;52.530;13.304;2022-07-12T11:50:50;27.60;58.20
6724;DHT22;3399;52.530;13.304;2022-07-12T11:53:34;27.90;56.00
6724;DHT22;3399;52.530;13.304;2022-07-12T11:56:01;27.80;57.20
6724;DHT22;3399;52.530;13.304;2022-07-12T11:58:28;27.90;55.30
6724;DHT22;3399;52.530;13.304;2022-07-12T12:00:55;26.70;57.70
6724;DHT22;3399;52.530;13.304;2022-07-12T12:03:21;26.10;57.10
6724;DHT22;3399;52.530;13.304;2022-07-12T12:05:48;26.20;57.50
6724;DHT22;3399;52.530;13.304;2022-07-12T12:08:14;27.30;57.10
6724;DHT22;3399;52.530;13.304;2022-07-12T12:10:53;27.80;55.50
6724;DHT22;3399;52.530;13.304;2022-07-12T12:13:19;28.20;54.70
6724;DHT22;3399;52.530;13.304;2022-07-12T12:15:53;28.00;54.20
6724;DHT22;3399;52.530;13.304;2022-07-12T12:18:37;28.50;54.90
6724;DHT22;3399;52.530;13.304;2022-07-12T12:21:08;28.80;54.50
6724;DHT22;3399;52.530;13.304;2022-07-12T12:23:35;28.70;53.80
6724;DHT22;3399;52.530;13.304;2022-07-12T12:26:15;29.30;52.80
6724;DHT22;3399;52.530;13.304;2022-07-12T12:28:43;27.80;53.60
6724;DHT22;3399;52.530;13.304;2022-07-12T12:31:10;28.20;54.80
6724;DHT22;3399;52.530;13.304;2022-07-12T12:33:47;28.10;53.00
6724;DHT22;3399;52.530;13.304;2022-07-12T12:36:21;28.10;53.60
6724;DHT22;3399;52.530;13.304;2022-07-12T12:38:48;29.40;52.00
6724;DHT22;3399;52.530;13.304;2022-07-12T12:41:15;29.10;51.90
6724;DHT22;3399;52.530;13.304;2022-07-12T12:43:42;28.60;52.90
6724;DHT22;3399;52.530;13.304;2022-07-12T12:46:07;27.70;52.80
6724;DHT22;3399;52.530;13.304;2022-07-12T12:48:34;27.80;53.60
6724;DHT22;3399;52.530;13.304;2022-07-12T12:51:11;27.90;53.90
6724;DHT22;3399;52.530;13.304;2022-07-12T12:53:39;29.20;53.50
6724;DHT22;3399;52.530;13.304;2022-07-12T12:56:10;29.40;52.10
6724;DHT22;3399;52.530;13.304;2022-07-12T12:58:37;29.60;52.70
6724;DHT22;3399;52.530;13.304;2022-07-12T13:01:04;29.50;50.70
6724;DHT22;3399;52.530;13.304;2022-07-12T13:03:30;30.50;49.20
6724;DHT22;3399;52.530;13.304;2022-07-12T13:05:56;30.30;49.60
6724;DHT22;3399;52.530;13.304;2022-07-12T13:08:23;30.30;49.80
6724;DHT22;3399;52.530;13.304;2022-07-12T13:10:49;30.60;49.40
6724;DHT22;3399;52.530;13.304;2022-07-12T13:13:36;30.20;49.00
6724;DHT22;3399;52.530;13.304;2022-07-12T13:16:02;29.50;50.00
6724;DHT22;3399;52.530;13.304;2022-07-12T13:18:27;29.90;49.60
6724;DHT22;3399;52.530;13.304;2022-07-12T13:20:53;29.50;50.50
6724;DHT22;3399;52.530;13.304;2022-07-12T13:23:18;29.50;50.30
6724;DHT22;3399;52.530;13.304;2022-07-12T13:25:44;29.90;49.70
6724;DHT22;3399;52.530;13.304;2022-07-12T13:28:09;30.80;49.00
6724;DHT22;3399;52.530;13.304;2022-07-12T13:30:37;30.60;49.30
6724;DHT22;3399;52.530;13.304;2022-07-12T13:33:02;31.00;48.10
6724;DHT22;3399;52.530;13.304;2022-07-12T13:35:28;30.70;50.40
6724;DHT22;3399;52.530;13.304;2022-07-12T13:37:55;31.10;47.40
6724;DHT22;3399;52.530;13.304;2022-07-12T13:40:20;32.10;46.00
6724;DHT22;3399;52.530;13.304;2022-07-12T13:42:49;32.00;45.60
6724;DHT22;3399;52.530;13.304;2022-07-12T13:45:16;31.90;46.50
6724;DHT22;3399;52.530;13.304;2022-07-12T13:47:46;31.60;46.00
6724;DHT22;3399;52.530;13.304;2022-07-12T13:50:14;31.20;46.50
6724;DHT22;3399;52.530;13.304;2022-07-12T13:52:41;29.60;48.80
6724;DHT22;3399;52.530;13.304;2022-07-12T13:55:11;29.90;48.70
6724;DHT22;3399;52.530;13.304;2022-07-12T13:57:38;31.80;46.40
6724;DHT22;3399;52.530;13.304;2022-07-12T14:00:10;33.00;45.90
6724;DHT22;3399;52.530;13.304;2022-07-12T14:02:40;34.20;43.60
6724;DHT22;3399;52.530;13.304;2022-07-12T14:05:09;33.00;44.40
6724;DHT22;3399;52.530;13.304;2022-07-12T14:07:38;32.50;45.20
6724;DHT22;3399;52.530;13.304;2022-07-12T14:10:05;31.70;45.20
6724;DHT22;3399;52.530;13.304;2022-07-12T14:12:31;31.20;45.90
6724;DHT22;3399;52.530;13.304;2022-07-12T14:14:57;30.60;46.20
6724;DHT22;3399;52.530;13.304;2022-07-12T14:17:39;30.60;45.90
6724;DHT22;3399;52.530;13.304;2022-07-12T14:20:06;30.30;47.40
6724;DHT22;3399;52.530;13.304;2022-07-12T14:22:33;30.90;48.20
6724;DHT22;3399;52.530;13.304;2022-07-12T14:24:59;32.40;45.00
6724;DHT22;3399;52.530;13.304;2022-07-12T14:27:24;32.20;45.00
6724;DHT22;3399;52.530;13.304;2022-07-12T14:29:50;32.20;44.90
6724;DHT22;3399;52.530;13.304;2022-07-12T14:32:15;32.70;43.90
6724;DHT22;3399;52.530;13.304;2022-07-12T14:34:41;31.30;45.70
6724;DHT22;3399;52.530;13.304;2022-07-12T14:37:09;30.60;46.50
6724;DHT22;3399;52.530;13.304;2022-07-12T14:39:37;31.00;46.20
6724;DHT22;3399;52.530;13.304;2022-07-12T14:42:03;32.90;43.80
6724;DHT22;3399;52.530;13.304;2022-07-12T14:44:29;33.10;43.00
6724;DHT22;3399;52.530;13.304;2022-07-12T14:46:55;32.10;43.70
6724;DHT22;3399;52.530;13.304;2022-07-12T14:49:22;31.30;44.60
6724;DHT22;3399;52.530;13.304;2022-07-12T14:51:48;30.70;45.30
6724;DHT22;3399;52.530;13.304;2022-07-12T14:54:13;31.20;45.60
6724;DHT22;3399;52.530;13.304;2022-07-12T14:56:39;31.60;44.50
6724;DHT22;3399;52.530;13.304;2022-07-12T14:59:05;30.90;45.60
6724;DHT22;3399;52.530;13.304;2022-07-12T15:01:31;31.50;45.40
6724;DHT22;3399;52.530;13.304;2022-07-12T15:03:56;32.40;44.60
6724;DHT22;3399;52.530;13.304;2022-07-12T15:06:22;33.10;43.30
6724;DHT22;3399;52.530;13.304;2022-07-12T15:08:48;31.50;43.70
6724;DHT22;3399;52.530;13.304;2022-07-12T15:11:13;31.00;46.00
6724;DHT22;3399;52.530;13.304;2022-07-12T15:13:39;32.50;44.10
6724;DHT22;3399;52.530;13.304;2022-07-12T15:16:05;33.30;42.30
6724;DHT22;3399;52.530;13.304;2022-07-12T15:18:30;31.70;43.80
6724;DHT22;3399;52.530;13.304;2022-07-12T15:20:56;31.70;44.10
6724;DHT22;3399;52.530;13.304;2022-07-12T15:23:21;33.10;42.90
6724;DHT22;3399;52.530;13.304;2022-07-12T15:25:47;32.90;42.90
6724;DHT22;3399;52.530;13.304;2022-07-12T15:28:15;32.30;42.40
6724;DHT22;3399;52.530;13.304;2022-07-12T15:30:40;32.60;42.90
6724;DHT22;3399;52.530;13.304;2022-07-12T15:33:06;34.00;41.30
6724;DHT22;3399;52.530;13.304;2022-07-12T15:35:31;33.00;40.90
6724;DHT22;3399;52.530;13.304;2022-07-12T15:37:57;32.80;42.60
6724;DHT22;3399;52.530;13.304;2022-07-12T15:40:23;33.00;42.60
6724;DHT22;3399;52.530;13.304;2022-07-12T15:42:48;34.20;41.30
6724;DHT22;3399;52.530;13.304;2022-07-12T15:45:14;33.80;40.60
6724;DHT22;3399;52.530;13.304;2022-07-12T15:47:40;32.80;43.50
6724;DHT22;3399;52.530;13.304;2022-07-12T15:50:06;33.70;41.10
6724;DHT22;3399;52.530;13.304;2022-07-12T15:52:32;32.60;42.70
6724;DHT22;3399;52.530;13.304;2022-07-12T15:55:16;33.90;42.00
6724;DHT22;3399;52.530;13.304;2022-07-12T15:57:41;32.90;41.00
6724;DHT22;3399;52.530;13.304;2022-07-12T16:00:08;32.10;42.50
6724;DHT22;3399;52.530;13.304;2022-07-12T16:02:34;31.50;44.10
6724;DHT22;3399;52.530;13.304;2022-07-12T16:05:00;31.90;43.70